sensor_id;sensor_type;location;lat;lon;timestamp;P1;durP1;ratioP1;P2;durP2;ratioP2
5869;SDS011;2961;47.702;9.410;2023-03-03T00:00:43;74.43;;;31.43;;
5869;SDS011;2961;47.702;9.410;2023-03-03T00:03:11;84.80;;;32.47;;
5869;SDS011;2961;47.702;9.410;2023-03-03T00:05:41;64.20;;;30.03;;
5869;SDS011;2961;47.702;9.410;2023-03-03T00:08:08;69.13;;;31.47;;
5869;SDS011;2961;47.702;9.410;2023-03-03T00:10:36;75.30;;;31.67;;
5869;SDS011;2961;47.702;9.410;2023-03-03T00:13:05;77.07;;;32.47;;
5869;SDS011;2961;47.702;9.410;2023-03-03T00:15:38;79.53;;;33.57;;
5869;SDS011;2961;47.702;9.410;2023-03-03T00:18:05;65.93;;;30.63;;
5869;SDS011;2961;47.702;9.410;2023-03-03T00:20:46;68.20;;;30.67;;
5869;SDS011;2961;47.702;9.410;2023-03-03T00:23:16;73.10;;;31.20;;
5869;SDS011;2961;47.702;9.410;2023-03-03T00:25:56;76.10;;;29.80;;
5869;SDS011;2961;47.702;9.410;2023-03-03T00:28:24;67.10;;;30.30;;
5869;SDS011;2961;47.702;9.410;2023-03-03T00:30:53;69.43;;;30.03;;
5869;SDS011;2961;47.702;9.410;2023-03-03T00:33:24;65.53;;;28.07;;
5869;SDS011;2961;47.702;9.410;2023-03-03T00:35:56;69.70;;;32.17;;
5869;SDS011;2961;47.702;9.410;2023-03-03T00:38:35;74.23;;;32.20;;
5869;SDS011;2961;47.702;9.410;2023-03-03T00:41:03;65.40;;;28.50;;
5869;SDS011;2961;47.702;9.410;2023-03-03T00:43:41;67.37;;;32.17;;
5869;SDS011;2961;47.702;9.410;2023-03-03T00:46:08;63.70;;;28.63;;
5869;SDS011;2961;47.702;9.410;2023-03-03T00:48:40;78.03;;;30.40;;
5869;SDS011;2961;47.702;9.410;2023-03-03T00:51:12;78.57;;;32.73;;
5869;SDS011;2961;47.702;9.410;2023-03-03T00:53:51;71.37;;;29.93;;
5869;SDS011;2961;47.702;9.410;2023-03-03T00:56:20;70.57;;;30.30;;
5869;SDS011;2961;47.702;9.410;2023-03-03T00:58:46;68.70;;;29.37;;
5869;SDS011;2961;47.702;9.410;2023-03-03T01:01:13;65.13;;;27.00;;
5869;SDS011;2961;47.702;9.410;2023-03-03T01:03:41;68.47;;;30.73;;
5869;SDS011;2961;47.702;9.410;2023-03-03T01:06:08;59.93;;;28.50;;
5869;SDS011;2961;47.702;9.410;2023-03-03T01:08:36;64.20;;;29.03;;
5869;SDS011;2961;47.702;9.410;2023-03-03T01:11:04;63.57;;;26.87;;
5869;SDS011;2961;47.702;9.410;2023-03-03T01:13:35;57.93;;;27.73;;
5869;SDS011;2961;47.702;9.410;2023-03-03T01:16:05;57.10;;;28.23;;
5869;SDS011;2961;47.702;9.410;2023-03-03T01:18:33;69.30;;;29.90;;
5869;SDS011;2961;47.702;9.410;2023-03-03T01:21:00;67.63;;;29.37;;
5869;SDS011;2961;47.702;9.410;2023-03-03T01:23:27;70.80;;;30.00;;
5869;SDS011;2961;47.702;9.410;2023-03-03T01:25:54;79.70;;;34.03;;
5869;SDS011;2961;47.702;9.410;2023-03-03T01:28:20;75.37;;;31.63;;
5869;SDS011;2961;47.702;9.410;2023-03-03T01:30:49;73.27;;;32.27;;
5869;SDS011;2961;47.702;9.410;2023-03-03T01:33:15;67.50;;;30.90;;
5869;SDS011;2961;47.702;9.410;2023-03-03T01:35:43;65.00;;;29.70;;
5869;SDS011;2961;47.702;9.410;2023-03-03T01:38:10;65.77;;;30.30;;
5869;SDS011;2961;47.702;9.410;2023-03-03T01:40:37;77.57;;;30.33;;
5869;SDS011;2961;47.702;9.410;2023-03-03T01:43:04;68.10;;;31.47;;
5869;SDS011;2961;47.702;9.410;2023-03-03T01:45:31;65.70;;;30.90;;
5869;SDS011;2961;47.702;9.410;2023-03-03T01:48:13;62.87;;;30.10;;
5869;SDS011;2961;47.702;9.410;2023-03-03T01:50:44;66.83;;;30.23;;
5869;SDS011;2961;47.702;9.410;2023-03-03T01:53:16;72.67;;;32.50;;
5869;SDS011;2961;47.702;9.410;2023-03-03T01:55:46;66.20;;;29.47;;
5869;SDS011;2961;47.702;9.410;2023-03-03T01:58:18;64.47;;;29.90;;
5869;SDS011;2961;47.702;9.410;2023-03-03T02:00:49;77.70;;;31.07;;
5869;SDS011;2961;47.702;9.410;2023-03-03T02:03:20;69.37;;;30.30;;
5869;SDS011;2961;47.702;9.410;2023-03-03T02:05:50;78.80;;;32.60;;
5869;SDS011;2961;47.702;9.410;2023-03-03T02:08:19;69.33;;;29.43;;
5869;SDS011;2961;47.702;9.410;2023-03-03T02:10:51;59.60;;;28.63;;
5869;SDS011;2961;47.702;9.410;2023-03-03T02:13:18;75.80;;;31.33;;
5869;SDS011;2961;47.702;9.410;2023-03-03T02:15:45;69.93;;;30.03;;
5869;SDS011;2961;47.702;9.410;2023-03-03T02:18:13;79.57;;;34.27;;
5869;SDS011;2961;47.702;9.410;2023-03-03T02:20:45;63.77;;;27.60;;
5869;SDS011;2961;47.702;9.410;2023-03-03T02:23:20;66.03;;;31.00;;
5869;SDS011;2961;47.702;9.410;2023-03-03T02:25:51;66.00;;;30.53;;
5869;SDS011;2961;47.702;9.410;2023-03-03T02:28:31;65.00;;;29.80;;
5869;SDS011;2961;47.702;9.410;2023-03-03T02:31:00;58.60;;;28.80;;
5869;SDS011;2961;47.702;9.410;2023-03-03T02:33:28;62.33;;;30.10;;
5869;SDS011;2961;47.702;9.410;2023-03-03T02:35:55;65.93;;;30.27;;
5869;SDS011;2961;47.702;9.410;2023-03-03T02:38:23;83.50;;;34.70;;
5869;SDS011;2961;47.702;9.410;2023-03-03T02:40:56;68.03;;;29.70;;
5869;SDS011;2961;47.702;9.410;2023-03-03T02:43:30;59.53;;;28.00;;
5869;SDS011;2961;47.702;9.410;2023-03-03T02:46:02;77.63;;;31.83;;
5869;SDS011;2961;47.702;9.410;2023-03-03T02:48:29;65.10;;;28.60;;
5869;SDS011;2961;47.702;9.410;2023-03-03T02:50:55;58.17;;;28.80;;
5869;SDS011;2961;47.702;9.410;2023-03-03T02:53:22;74.50;;;33.80;;
5869;SDS011;2961;47.702;9.410;2023-03-03T02:55:49;70.90;;;31.40;;
5869;SDS011;2961;47.702;9.410;2023-03-03T02:58:16;71.60;;;32.57;;
5869;SDS011;2961;47.702;9.410;2023-03-03T03:00:44;73.23;;;32.67;;
5869;SDS011;2961;47.702;9.410;2023-03-03T03:03:12;62.90;;;29.53;;
5869;SDS011;2961;47.702;9.410;2023-03-03T03:05:39;73.17;;;32.27;;
5869;SDS011;2961;47.702;9.410;2023-03-03T03:08:06;69.63;;;30.13;;
5869;SDS011;2961;47.702;9.410;2023-03-03T03:10:32;70.13;;;29.87;;
5869;SDS011;2961;47.702;9.410;2023-03-03T03:13:00;67.10;;;30.43;;
5869;SDS011;2961;47.702;9.410;2023-03-03T03:15:27;64.40;;;30.40;;
5869;SDS011;2961;47.702;9.410;2023-03-03T03:17:55;65.30;;;29.03;;
5869;SDS011;2961;47.702;9.410;2023-03-03T03:20:21;66.37;;;30.10;;
5869;SDS011;2961;47.702;9.410;2023-03-03T03:22:48;69.23;;;32.27;;
5869;SDS011;2961;47.702;9.410;2023-03-03T03:25:15;66.63;;;30.60;;
5869;SDS011;2961;47.702;9.410;2023-03-03T03:27:42;69.17;;;30.37;;
5869;SDS011;2961;47.702;9.410;2023-03-03T03:30:09;64.93;;;29.20;;
5869;SDS011;2961;47.702;9.410;2023-03-03T03:32:36;64.37;;;31.17;;
5869;SDS011;2961;47.702;9.410;2023-03-03T03:35:05;65.87;;;29.40;;
5869;SDS011;2961;47.702;9.410;2023-03-03T03:37:32;67.53;;;31.27;;
5869;SDS011;2961;47.702;9.410;2023-03-03T03:39:59;71.23;;;31.17;;
5869;SDS011;2961;47.702;9.410;2023-03-03T03:42:25;68.50;;;32.50;;
5869;SDS011;2961;47.702;9.410;2023-03-03T03:44:52;77.90;;;32.90;;
5869;SDS011;2961;47.702;9.410;2023-03-03T03:47:19;76.80;;;30.27;;
5869;SDS011;2961;47.702;9.410;2023-03-03T03:49:46;71.10;;;30.87;;
5869;SDS011;2961;47.702;9.410;2023-03-03T03:52:14;66.83;;;29.63;;
5869;SDS011;2961;47.702;9.410;2023-03-03T03:54:41;72.23;;;31.70;;
5869;SDS011;2961;47.702;9.410;2023-03-03T03:57:08;68.17;;;29.37;;
5869;SDS011;2961;47.702;9.410;2023-03-03T03:59:34;70.20;;;30.00;;
5869;SDS011;2961;47.702;9.410;2023-03-03T04:02:01;64.93;;;29.53;;
5869;SDS011;2961;47.702;9.410;2023-03-03T04:04:28;61.30;;;28.80;;
5869;SDS011;2961;47.702;9.410;2023-03-03T04:06:55;62.90;;;27.13;;
5869;SDS011;2961;47.702;9.410;2023-03-03T04:09:23;63.97;;;30.87;;
5869;SDS011;2961;47.702;9.410;2023-03-03T04:11:50;68.87;;;31.83;;
5869;SDS011;2961;47.702;9.410;2023-03-03T04:14:16;75.40;;;31.53;;
5869;SDS011;2961;47.702;9.410;2023-03-03T04:16:43;64.80;;;29.63;;
5869;SDS011;2961;47.702;9.410;2023-03-03T04:19:10;72.73;;;32.93;;
5869;SDS011;2961;47.702;9.410;2023-03-03T04:21:37;64.30;;;27.63;;
5869;SDS011;2961;47.702;9.410;2023-03-03T04:24:03;72.87;;;31.73;;
5869;SDS011;2961;47.702;9.410;2023-03-03T04:29:00;69.10;;;28.57;;
5869;SDS011;2961;47.702;9.410;2023-03-03T04:31:27;60.27;;;27.20;;
5869;SDS011;2961;47.702;9.410;2023-03-03T04:33:54;63.43;;;27.53;;
5869;SDS011;2961;47.702;9.410;2023-03-03T04:36:21;67.73;;;29.07;;
5869;SDS011;2961;47.702;9.410;2023-03-03T04:38:48;74.27;;;32.53;;
5869;SDS011;2961;47.702;9.410;2023-03-03T04:41:15;71.97;;;32.10;;
5869;SDS011;2961;47.702;9.410;2023-03-03T04:43:43;68.60;;;30.30;;
5869;SDS011;2961;47.702;9.410;2023-03-03T04:46:10;55.23;;;28.57;;
5869;SDS011;2961;47.702;9.410;2023-03-03T04:48:36;71.63;;;30.50;;
5869;SDS011;2961;47.702;9.410;2023-03-03T04:51:03;70.87;;;30.57;;
5869;SDS011;2961;47.702;9.410;2023-03-03T04:53:30;77.53;;;31.03;;
5869;SDS011;2961;47.702;9.410;2023-03-03T04:55:57;56.10;;;28.20;;
5869;SDS011;2961;47.702;9.410;2023-03-03T04:58:24;68.53;;;28.37;;
5869;SDS011;2961;47.702;9.410;2023-03-03T05:00:53;64.50;;;30.97;;
5869;SDS011;2961;47.702;9.410;2023-03-03T05:03:21;60.90;;;28.70;;
5869;SDS011;2961;47.702;9.410;2023-03-03T05:05:49;66.47;;;29.57;;
5869;SDS011;2961;47.702;9.410;2023-03-03T05:08:15;61.43;;;28.80;;
5869;SDS011;2961;47.702;9.410;2023-03-03T05:10:42;70.80;;;31.00;;
5869;SDS011;2961;47.702;9.410;2023-03-03T05:13:09;73.77;;;30.67;;
5869;SDS011;2961;47.702;9.410;2023-03-03T05:15:39;68.27;;;30.40;;
5869;SDS011;2961;47.702;9.410;2023-03-03T05:18:07;68.03;;;29.57;;
5869;SDS011;2961;47.702;9.410;2023-03-03T05:20:35;60.47;;;29.03;;
5869;SDS011;2961;47.702;9.410;2023-03-03T05:23:04;73.47;;;31.23;;
5869;SDS011;2961;47.702;9.410;2023-03-03T05:25:31;65.83;;;30.37;;
5869;SDS011;2961;47.702;9.410;2023-03-03T05:27:58;75.10;;;31.00;;
5869;SDS011;2961;47.702;9.410;2023-03-03T05:30:25;76.83;;;32.77;;
5869;SDS011;2961;47.702;9.410;2023-03-03T05:32:51;78.63;;;34.20;;
5869;SDS011;2961;47.702;9.410;2023-03-03T05:35:19;66.30;;;30.70;;
5869;SDS011;2961;47.702;9.410;2023-03-03T05:37:47;69.73;;;29.50;;
5869;SDS011;2961;47.702;9.410;2023-03-03T05:40:14;67.40;;;29.80;;
5869;SDS011;2961;47.702;9.410;2023-03-03T05:42:41;73.33;;;31.30;;
5869;SDS011;2961;47.702;9.410;2023-03-03T05:45:08;74.77;;;33.17;;
5869;SDS011;2961;47.702;9.410;2023-03-03T05:47:35;68.40;;;31.40;;
5869;SDS011;2961;47.702;9.410;2023-03-03T05:50:03;66.60;;;30.40;;
5869;SDS011;2961;47.702;9.410;2023-03-03T05:52:31;73.77;;;31.90;;
5869;SDS011;2961;47.702;9.410;2023-03-03T05:54:58;73.17;;;30.60;;
5869;SDS011;2961;47.702;9.410;2023-03-03T05:57:25;66.70;;;30.73;;
5869;SDS011;2961;47.702;9.410;2023-03-03T05:59:52;66.90;;;29.73;;
5869;SDS011;2961;47.702;9.410;2023-03-03T06:02:18;63.97;;;29.37;;
5869;SDS011;2961;47.702;9.410;2023-03-03T06:04:45;79.10;;;32.40;;
5869;SDS011;2961;47.702;9.410;2023-03-03T06:07:12;64.63;;;31.20;;
5869;SDS011;2961;47.702;9.410;2023-03-03T06:09:40;80.67;;;37.20;;
5869;SDS011;2961;47.702;9.410;2023-03-03T06:12:07;110.22;;;50.78;;
5869;SDS011;2961;47.702;9.410;2023-03-03T06:14:34;89.50;;;40.53;;
5869;SDS011;2961;47.702;9.410;2023-03-03T06:17:00;86.40;;;38.60;;
5869;SDS011;2961;47.702;9.410;2023-03-03T06:19:27;77.97;;;34.67;;
5869;SDS011;2961;47.702;9.410;2023-03-03T06:21:54;75.80;;;35.30;;
5869;SDS011;2961;47.702;9.410;2023-03-03T06:24:21;74.07;;;32.70;;
5869;SDS011;2961;47.702;9.410;2023-03-03T06:26:50;69.77;;;31.57;;
5869;SDS011;2961;47.702;9.410;2023-03-03T06:29:17;78.40;;;37.50;;
5869;SDS011;2961;47.702;9.410;2023-03-03T06:31:44;80.00;;;33.23;;
5869;SDS011;2961;47.702;9.410;2023-03-03T06:34:10;68.60;;;30.67;;
5869;SDS011;2961;47.702;9.410;2023-03-03T06:36:37;74.20;;;33.30;;
5869;SDS011;2961;47.702;9.410;2023-03-03T06:39:06;81.47;;;38.27;;
5869;SDS011;2961;47.702;9.410;2023-03-03T06:41:32;78.90;;;36.10;;
5869;SDS011;2961;47.702;9.410;2023-03-03T06:44:01;74.47;;;35.40;;
5869;SDS011;2961;47.702;9.410;2023-03-03T06:46:27;82.53;;;32.60;;
5869;SDS011;2961;47.702;9.410;2023-03-03T06:48:54;84.03;;;34.77;;
5869;SDS011;2961;47.702;9.410;2023-03-03T06:51:22;78.80;;;35.27;;
5869;SDS011;2961;47.702;9.410;2023-03-03T06:53:51;74.20;;;33.90;;
5869;SDS011;2961;47.702;9.410;2023-03-03T06:56:19;64.27;;;31.20;;
5869;SDS011;2961;47.702;9.410;2023-03-03T06:58:46;68.87;;;32.00;;
5869;SDS011;2961;47.702;9.410;2023-03-03T07:01:16;68.87;;;33.33;;
5869;SDS011;2961;47.702;9.410;2023-03-03T07:03:42;70.10;;;33.27;;
5869;SDS011;2961;47.702;9.410;2023-03-03T07:06:14;69.60;;;32.80;;
5869;SDS011;2961;47.702;9.410;2023-03-03T07:08:45;66.90;;;32.73;;
5869;SDS011;2961;47.702;9.410;2023-03-03T07:11:13;81.17;;;35.20;;
5869;SDS011;2961;47.702;9.410;2023-03-03T07:13:44;80.30;;;36.53;;
5869;SDS011;2961;47.702;9.410;2023-03-03T07:16:12;83.30;;;37.47;;
5869;SDS011;2961;47.702;9.410;2023-03-03T07:18:43;79.27;;;35.30;;
5869;SDS011;2961;47.702;9.410;2023-03-03T07:21:16;76.57;;;35.70;;
5869;SDS011;2961;47.702;9.410;2023-03-03T07:23:45;78.07;;;34.47;;
5869;SDS011;2961;47.702;9.410;2023-03-03T07:26:14;95.30;;;43.90;;
5869;SDS011;2961;47.702;9.410;2023-03-03T07:28:42;102.33;;;46.87;;
5869;SDS011;2961;47.702;9.410;2023-03-03T07:31:20;81.27;;;39.13;;
5869;SDS011;2961;47.702;9.410;2023-03-03T07:33:54;79.60;;;35.80;;
5869;SDS011;2961;47.702;9.410;2023-03-03T07:36:25;74.67;;;36.77;;
5869;SDS011;2961;47.702;9.410;2023-03-03T07:38:55;97.83;;;41.90;;
5869;SDS011;2961;47.702;9.410;2023-03-03T07:41:24;78.00;;;37.90;;
5869;SDS011;2961;47.702;9.410;2023-03-03T07:43:52;74.00;;;34.90;;
5869;SDS011;2961;47.702;9.410;2023-03-03T07:46:22;79.90;;;35.63;;
5869;SDS011;2961;47.702;9.410;2023-03-03T07:48:54;79.13;;;37.30;;
5869;SDS011;2961;47.702;9.410;2023-03-03T07:51:22;89.83;;;36.07;;
5869;SDS011;2961;47.702;9.410;2023-03-03T07:53:52;79.53;;;35.57;;
5869;SDS011;2961;47.702;9.410;2023-03-03T07:56:29;77.20;;;35.80;;
5869;SDS011;2961;47.702;9.410;2023-03-03T07:59:01;72.30;;;35.00;;
5869;SDS011;2961;47.702;9.410;2023-03-03T08:01:35;84.93;;;36.10;;
5869;SDS011;2961;47.702;9.410;2023-03-03T08:04:10;72.50;;;33.73;;
5869;SDS011;2961;47.702;9.410;2023-03-03T08:06:47;76.40;;;34.20;;
5869;SDS011;2961;47.702;9.410;2023-03-03T08:12:27;91.93;;;37.63;;
5869;SDS011;2961;47.702;9.410;2023-03-03T08:15:07;78.87;;;34.73;;
5869;SDS011;2961;47.702;9.410;2023-03-03T08:17:41;80.40;;;36.90;;
5869;SDS011;2961;47.702;9.410;2023-03-03T08:23:04;63.50;;;31.77;;
5869;SDS011;2961;47.702;9.410;2023-03-03T08:25:30;82.37;;;35.33;;
5869;SDS011;2961;47.702;9.410;2023-03-03T08:27:57;90.93;;;37.90;;
5869;SDS011;2961;47.702;9.410;2023-03-03T08:30:24;81.57;;;38.33;;
5869;SDS011;2961;47.702;9.410;2023-03-03T08:32:51;94.97;;;42.00;;
5869;SDS011;2961;47.702;9.410;2023-03-03T08:35:17;123.43;;;58.23;;
5869;SDS011;2961;47.702;9.410;2023-03-03T08:37:46;98.33;;;43.77;;
5869;SDS011;2961;47.702;9.410;2023-03-03T08:40:12;84.20;;;36.13;;
5869;SDS011;2961;47.702;9.410;2023-03-03T08:42:39;86.20;;;39.93;;
5869;SDS011;2961;47.702;9.410;2023-03-03T08:45:06;87.00;;;39.97;;
5869;SDS011;2961;47.702;9.410;2023-03-03T08:47:33;83.30;;;39.40;;
5869;SDS011;2961;47.702;9.410;2023-03-03T08:50:00;80.87;;;35.30;;
5869;SDS011;2961;47.702;9.410;2023-03-03T08:52:26;84.43;;;37.20;;
5869;SDS011;2961;47.702;9.410;2023-03-03T08:54:55;78.57;;;35.37;;
5869;SDS011;2961;47.702;9.410;2023-03-03T08:57:22;89.60;;;39.43;;
5869;SDS011;2961;47.702;9.410;2023-03-03T08:59:48;78.37;;;39.00;;
5869;SDS011;2961;47.702;9.410;2023-03-03T09:02:15;85.80;;;38.13;;
5869;SDS011;2961;47.702;9.410;2023-03-03T09:04:42;79.77;;;35.70;;
5869;SDS011;2961;47.702;9.410;2023-03-03T09:07:09;80.13;;;37.40;;
5869;SDS011;2961;47.702;9.410;2023-03-03T09:09:35;74.00;;;35.83;;
5869;SDS011;2961;47.702;9.410;2023-03-03T09:12:08;86.23;;;35.00;;
5869;SDS011;2961;47.702;9.410;2023-03-03T09:14:40;78.17;;;37.10;;
5869;SDS011;2961;47.702;9.410;2023-03-03T09:17:16;73.87;;;34.80;;
5869;SDS011;2961;47.702;9.410;2023-03-03T09:19:49;79.57;;;36.40;;
5869;SDS011;2961;47.702;9.410;2023-03-03T09:22:17;81.97;;;36.10;;
5869;SDS011;2961;47.702;9.410;2023-03-03T09:24:45;88.03;;;38.87;;
5869;SDS011;2961;47.702;9.410;2023-03-03T09:27:17;83.70;;;39.33;;
5869;SDS011;2961;47.702;9.410;2023-03-03T09:29:48;78.10;;;37.67;;
5869;SDS011;2961;47.702;9.410;2023-03-03T09:32:20;77.37;;;35.17;;
5869;SDS011;2961;47.702;9.410;2023-03-03T09:34:53;94.00;;;41.07;;
5869;SDS011;2961;47.702;9.410;2023-03-03T09:37:21;96.93;;;39.70;;
5869;SDS011;2961;47.702;9.410;2023-03-03T09:39:50;80.17;;;36.30;;
5869;SDS011;2961;47.702;9.410;2023-03-03T09:45:30;88.13;;;35.47;;
5869;SDS011;2961;47.702;9.410;2023-03-03T09:48:20;76.30;;;36.97;;
5869;SDS011;2961;47.702;9.410;2023-03-03T09:51:06;85.33;;;35.63;;
5869;SDS011;2961;47.702;9.410;2023-03-03T09:53:49;71.67;;;35.40;;
5869;SDS011;2961;47.702;9.410;2023-03-03T09:56:24;77.23;;;36.33;;
5869;SDS011;2961;47.702;9.410;2023-03-03T09:59:03;78.10;;;35.87;;
5869;SDS011;2961;47.702;9.410;2023-03-03T10:01:48;76.90;;;35.83;;
5869;SDS011;2961;47.702;9.410;2023-03-03T10:04:24;82.80;;;37.07;;
5869;SDS011;2961;47.702;9.410;2023-03-03T10:07:16;83.50;;;37.17;;
5869;SDS011;2961;47.702;9.410;2023-03-03T10:09:55;81.53;;;36.40;;
5869;SDS011;2961;47.702;9.410;2023-03-03T10:12:38;77.47;;;36.53;;
5869;SDS011;2961;47.702;9.410;2023-03-03T10:15:20;73.73;;;35.83;;
5869;SDS011;2961;47.702;9.410;2023-03-03T10:18:12;81.13;;;38.63;;
5869;SDS011;2961;47.702;9.410;2023-03-03T10:20:53;86.17;;;35.50;;
5869;SDS011;2961;47.702;9.410;2023-03-03T10:23:33;80.73;;;36.10;;
5869;SDS011;2961;47.702;9.410;2023-03-03T10:26:10;87.60;;;38.90;;
5869;SDS011;2961;47.702;9.410;2023-03-03T10:28:53;79.60;;;36.73;;
5869;SDS011;2961;47.702;9.410;2023-03-03T10:31:34;81.60;;;37.83;;
5869;SDS011;2961;47.702;9.410;2023-03-03T10:34:14;77.97;;;37.27;;
5869;SDS011;2961;47.702;9.410;2023-03-03T10:36:52;75.43;;;36.20;;
5869;SDS011;2961;47.702;9.410;2023-03-03T10:45:15;80.90;;;37.57;;
5869;SDS011;2961;47.702;9.410;2023-03-03T10:48:04;83.00;;;36.70;;
5869;SDS011;2961;47.702;9.410;2023-03-03T10:50:50;78.03;;;36.73;;
5869;SDS011;2961;47.702;9.410;2023-03-03T10:53:26;71.27;;;33.57;;
5869;SDS011;2961;47.702;9.410;2023-03-03T10:56:06;87.90;;;38.80;;
5869;SDS011;2961;47.702;9.410;2023-03-03T10:58:48;84.93;;;39.33;;
5869;SDS011;2961;47.702;9.410;2023-03-03T11:01:26;84.67;;;38.30;;
5869;SDS011;2961;47.702;9.410;2023-03-03T11:04:11;81.17;;;38.73;;
5869;SDS011;2961;47.702;9.410;2023-03-03T11:07:00;92.37;;;37.30;;
5869;SDS011;2961;47.702;9.410;2023-03-03T11:12:26;70.00;;;35.77;;
5869;SDS011;2961;47.702;9.410;2023-03-03T11:15:05;80.40;;;38.37;;
5869;SDS011;2961;47.702;9.410;2023-03-03T11:17:50;79.50;;;37.90;;
5869;SDS011;2961;47.702;9.410;2023-03-03T11:20:44;71.57;;;35.67;;
5869;SDS011;2961;47.702;9.410;2023-03-03T11:23:27;73.07;;;35.70;;
5869;SDS011;2961;47.702;9.410;2023-03-03T11:26:11;75.67;;;35.70;;
5869;SDS011;2961;47.702;9.410;2023-03-03T11:28:46;83.30;;;38.70;;
5869;SDS011;2961;47.702;9.410;2023-03-03T11:31:28;74.90;;;35.70;;
5869;SDS011;2961;47.702;9.410;2023-03-03T11:34:04;84.80;;;39.20;;
5869;SDS011;2961;47.702;9.410;2023-03-03T11:36:40;88.20;;;39.20;;
5869;SDS011;2961;47.702;9.410;2023-03-03T11:39:15;89.27;;;38.20;;
5869;SDS011;2961;47.702;9.410;2023-03-03T11:41:48;81.20;;;39.50;;
5869;SDS011;2961;47.702;9.410;2023-03-03T11:44:26;79.77;;;36.40;;
5869;SDS011;2961;47.702;9.410;2023-03-03T11:46:58;79.40;;;38.40;;
5869;SDS011;2961;47.702;9.410;2023-03-03T11:49:32;77.60;;;36.80;;
5869;SDS011;2961;47.702;9.410;2023-03-03T11:52:07;80.20;;;37.77;;
5869;SDS011;2961;47.702;9.410;2023-03-03T11:54:47;76.83;;;38.60;;
5869;SDS011;2961;47.702;9.410;2023-03-03T11:57:20;74.60;;;34.90;;
5869;SDS011;2961;47.702;9.410;2023-03-03T11:59:55;73.37;;;34.90;;
5869;SDS011;2961;47.702;9.410;2023-03-03T12:02:51;81.17;;;39.53;;
5869;SDS011;2961;47.702;9.410;2023-03-03T12:05:38;73.60;;;35.00;;
5869;SDS011;2961;47.702;9.410;2023-03-03T12:08:19;75.40;;;35.93;;
5869;SDS011;2961;47.702;9.410;2023-03-03T12:11:02;89.00;;;40.50;;
5869;SDS011;2961;47.702;9.410;2023-03-03T12:13:39;65.73;;;34.03;;
5869;SDS011;2961;47.702;9.410;2023-03-03T12:16:16;76.17;;;35.90;;
5869;SDS011;2961;47.702;9.410;2023-03-03T12:18:53;76.73;;;37.00;;
5869;SDS011;2961;47.702;9.410;2023-03-03T12:21:45;77.67;;;36.83;;
5869;SDS011;2961;47.702;9.410;2023-03-03T12:24:40;71.00;;;34.90;;
5869;SDS011;2961;47.702;9.410;2023-03-03T12:27:18;73.73;;;36.80;;
5869;SDS011;2961;47.702;9.410;2023-03-03T12:29:53;78.00;;;36.43;;
5869;SDS011;2961;47.702;9.410;2023-03-03T12:32:29;85.50;;;38.40;;
5869;SDS011;2961;47.702;9.410;2023-03-03T12:35:08;97.03;;;39.13;;
5869;SDS011;2961;47.702;9.410;2023-03-03T12:37:45;74.27;;;36.70;;
5869;SDS011;2961;47.702;9.410;2023-03-03T12:40:19;76.23;;;38.00;;
5869;SDS011;2961;47.702;9.410;2023-03-03T12:42:56;78.90;;;40.80;;
5869;SDS011;2961;47.702;9.410;2023-03-03T12:45:37;75.77;;;37.70;;
5869;SDS011;2961;47.702;9.410;2023-03-03T12:48:13;79.13;;;40.07;;
5869;SDS011;2961;47.702;9.410;2023-03-03T12:50:46;85.30;;;40.00;;
5869;SDS011;2961;47.702;9.410;2023-03-03T12:56:31;86.90;;;39.27;;
5869;SDS011;2961;47.702;9.410;2023-03-03T12:59:04;71.33;;;37.23;;
5869;SDS011;2961;47.702;9.410;2023-03-03T13:01:41;78.70;;;38.47;;
5869;SDS011;2961;47.702;9.410;2023-03-03T13:04:27;80.83;;;37.37;;
5869;SDS011;2961;47.702;9.410;2023-03-03T13:06:58;90.27;;;38.70;;
5869;SDS011;2961;47.702;9.410;2023-03-03T13:09:33;79.73;;;37.40;;
5869;SDS011;2961;47.702;9.410;2023-03-03T13:12:13;81.47;;;39.53;;
5869;SDS011;2961;47.702;9.410;2023-03-03T13:14:54;79.40;;;39.63;;
5869;SDS011;2961;47.702;9.410;2023-03-03T13:17:28;80.27;;;39.93;;
5869;SDS011;2961;47.702;9.410;2023-03-03T13:19:59;76.83;;;39.50;;
5869;SDS011;2961;47.702;9.410;2023-03-03T13:22:39;82.73;;;37.50;;
5869;SDS011;2961;47.702;9.410;2023-03-03T13:28:21;82.17;;;39.17;;
5869;SDS011;2961;47.702;9.410;2023-03-03T13:30:54;91.10;;;37.17;;
5869;SDS011;2961;47.702;9.410;2023-03-03T13:33:26;82.23;;;39.27;;
5869;SDS011;2961;47.702;9.410;2023-03-03T13:35:56;89.03;;;41.90;;
5869;SDS011;2961;47.702;9.410;2023-03-03T13:38:26;69.73;;;36.10;;
5869;SDS011;2961;47.702;9.410;2023-03-03T13:40:56;89.53;;;39.17;;
5869;SDS011;2961;47.702;9.410;2023-03-03T13:43:33;86.37;;;39.93;;
5869;SDS011;2961;47.702;9.410;2023-03-03T13:46:10;79.73;;;38.57;;
5869;SDS011;2961;47.702;9.410;2023-03-03T13:48:46;78.37;;;37.73;;
5869;SDS011;2961;47.702;9.410;2023-03-03T13:51:28;81.73;;;37.73;;
5869;SDS011;2961;47.702;9.410;2023-03-03T13:54:04;76.70;;;35.70;;
5869;SDS011;2961;47.702;9.410;2023-03-03T13:56:48;72.23;;;35.27;;
5869;SDS011;2961;47.702;9.410;2023-03-03T13:59:41;75.30;;;35.90;;
5869;SDS011;2961;47.702;9.410;2023-03-03T14:02:19;79.10;;;36.37;;
5869;SDS011;2961;47.702;9.410;2023-03-03T14:05:03;67.47;;;33.10;;
5869;SDS011;2961;47.702;9.410;2023-03-03T14:07:37;95.83;;;39.00;;
5869;SDS011;2961;47.702;9.410;2023-03-03T14:10:07;85.50;;;39.83;;
5869;SDS011;2961;47.702;9.410;2023-03-03T14:12:41;62.30;;;32.73;;
5869;SDS011;2961;47.702;9.410;2023-03-03T14:15:20;74.30;;;36.90;;
5869;SDS011;2961;47.702;9.410;2023-03-03T14:17:56;80.47;;;38.20;;
5869;SDS011;2961;47.702;9.410;2023-03-03T14:20:38;85.73;;;39.30;;
5869;SDS011;2961;47.702;9.410;2023-03-03T14:23:09;80.70;;;37.40;;
5869;SDS011;2961;47.702;9.410;2023-03-03T14:28:36;89.50;;;38.77;;
5869;SDS011;2961;47.702;9.410;2023-03-03T14:31:10;77.23;;;38.20;;
5869;SDS011;2961;47.702;9.410;2023-03-03T14:33:44;84.07;;;39.20;;
5869;SDS011;2961;47.702;9.410;2023-03-03T14:36:24;76.93;;;38.03;;
5869;SDS011;2961;47.702;9.410;2023-03-03T14:38:52;77.60;;;36.50;;
5869;SDS011;2961;47.702;9.410;2023-03-03T14:41:20;76.57;;;36.20;;
5869;SDS011;2961;47.702;9.410;2023-03-03T14:44:01;82.80;;;38.73;;
5869;SDS011;2961;47.702;9.410;2023-03-03T14:46:59;85.87;;;40.50;;
5869;SDS011;2961;47.702;9.410;2023-03-03T14:49:41;83.33;;;37.23;;
5869;SDS011;2961;47.702;9.410;2023-03-03T14:52:11;82.43;;;38.50;;
5869;SDS011;2961;47.702;9.410;2023-03-03T14:54:45;76.97;;;39.77;;
5869;SDS011;2961;47.702;9.410;2023-03-03T14:57:14;80.77;;;37.77;;
5869;SDS011;2961;47.702;9.410;2023-03-03T14:59:54;86.90;;;38.53;;
5869;SDS011;2961;47.702;9.410;2023-03-03T15:02:28;83.97;;;38.90;;
5869;SDS011;2961;47.702;9.410;2023-03-03T15:05:16;80.90;;;38.23;;
5869;SDS011;2961;47.702;9.410;2023-03-03T15:07:46;81.77;;;36.70;;
5869;SDS011;2961;47.702;9.410;2023-03-03T15:10:25;89.33;;;40.77;;
5869;SDS011;2961;47.702;9.410;2023-03-03T15:12:57;85.87;;;41.07;;
5869;SDS011;2961;47.702;9.410;2023-03-03T15:15:33;76.23;;;37.67;;
5869;SDS011;2961;47.702;9.410;2023-03-03T15:18:01;81.90;;;40.03;;
5869;SDS011;2961;47.702;9.410;2023-03-03T15:20:40;85.47;;;39.97;;
5869;SDS011;2961;47.702;9.410;2023-03-03T15:23:12;85.10;;;39.20;;
5869;SDS011;2961;47.702;9.410;2023-03-03T15:25:56;91.30;;;39.20;;
5869;SDS011;2961;47.702;9.410;2023-03-03T15:28:29;80.73;;;39.83;;
5869;SDS011;2961;47.702;9.410;2023-03-03T15:31:06;90.97;;;42.47;;
5869;SDS011;2961;47.702;9.410;2023-03-03T15:33:42;84.73;;;40.40;;
5869;SDS011;2961;47.702;9.410;2023-03-03T15:36:16;85.73;;;39.87;;
5869;SDS011;2961;47.702;9.410;2023-03-03T15:38:54;75.10;;;36.73;;
5869;SDS011;2961;47.702;9.410;2023-03-03T15:41:33;84.93;;;41.17;;
5869;SDS011;2961;47.702;9.410;2023-03-03T15:44:10;84.90;;;37.60;;
5869;SDS011;2961;47.702;9.410;2023-03-03T15:46:45;81.40;;;40.50;;